sensor_id;sensor_type;location;lat;lon;timestamp;pressure;altitude;pressure_sealevel;temperature;humidity
49841;BME280;35738;49.890;5.930;2023-04-22T00:01:55;95024.56;;;7.18;100.00
49841;BME280;35738;49.890;5.930;2023-04-22T00:04:21;95015.28;;;7.10;100.00
49841;BME280;35738;49.890;5.930;2023-04-22T00:06:48;95014.19;;;7.03;100.00
49841;BME280;35738;49.890;5.930;2023-04-22T00:09:15;95017.75;;;6.94;100.00
49841;BME280;35738;49.890;5.930;2023-04-22T00:11:41;95014.06;;;6.90;100.00
49841;BME280;35738;49.890;5.930;2023-04-22T00:14:08;95012.78;;;6.88;100.00
49841;BME280;35738;49.890;5.930;2023-04-22T00:16:34;95012.78;;;6.88;100.00
49841;BME280;35738;49.890;5.930;2023-04-22T00:19:01;95025.81;;;6.91;100.00
49841;BME280;35738;49.890;5.930;2023-04-22T00:21:27;95016.16;;;6.93;100.00
49841;BME280;35738;49.890;5.930;2023-04-22T00:23:54;95013.91;;;6.95;100.00
49841;BME280;35738;49.890;5.930;2023-04-22T00:26:20;95010.97;;;7.00;100.00
49841;BME280;35738;49.890;5.930;2023-04-22T00:28:47;95012.72;;;7.05;100.00
49841;BME280;35738;49.890;5.930;2023-04-22T00:31:13;95004.06;;;7.03;100.00
49841;BME280;35738;49.890;5.930;2023-04-22T00:33:40;95002.75;;;7.09;100.00
49841;BME280;35738;49.890;5.930;2023-04-22T00:36:07;94995.00;;;7.11;100.00
49841;BME280;35738;49.890;5.930;2023-04-22T00:38:33;95000.75;;;7.18;100.00
49841;BME280;35738;49.890;5.930;2023-04-22T00:41:01;95002.03;;;7.21;100.00
49841;BME280;35738;49.890;5.930;2023-04-22T00:43:28;94986.91;;;7.23;100.00
49841;BME280;35738;49.890;5.930;2023-04-22T00:45:56;94999.44;;;7.24;100.00
49841;BME280;35738;49.890;5.930;2023-04-22T00:48:23;95003.94;;;7.29;100.00
49841;BME280;35738;49.890;5.930;2023-04-22T00:50:53;95001.19;;;7.29;100.00
49841;BME280;35738;49.890;5.930;2023-04-22T00:53:20;95009.41;;;7.29;100.00
49841;BME280;35738;49.890;5.930;2023-04-22T00:55:46;95005.53;;;7.30;100.00
49841;BME280;35738;49.890;5.930;2023-04-22T00:58:13;95001.53;;;7.27;100.00
49841;BME280;35738;49.890;5.930;2023-04-22T01:00:40;95001.38;;;7.24;100.00
49841;BME280;35738;49.890;5.930;2023-04-22T01:03:06;94993.22;;;7.15;100.00
49841;BME280;35738;49.890;5.930;2023-04-22T01:05:34;94997.41;;;7.13;100.00
49841;BME280;35738;49.890;5.930;2023-04-22T01:08:01;94998.06;;;7.10;100.00
49841;BME280;35738;49.890;5.930;2023-04-22T01:10:28;94994.06;;;7.07;100.00
49841;BME280;35738;49.890;5.930;2023-04-22T01:12:54;94987.47;;;7.08;100.00
49841;BME280;35738;49.890;5.930;2023-04-22T01:15:21;94987.00;;;7.06;100.00
49841;BME280;35738;49.890;5.930;2023-04-22T01:17:47;94990.38;;;7.03;100.00
49841;BME280;35738;49.890;5.930;2023-04-22T01:20:14;94987.84;;;6.98;100.00
49841;BME280;35738;49.890;5.930;2023-04-22T01:22:43;94984.44;;;7.01;100.00
49841;BME280;35738;49.890;5.930;2023-04-22T01:25:11;94990.19;;;7.08;100.00
49841;BME280;35738;49.890;5.930;2023-04-22T01:27:38;94988.09;;;7.14;100.00
49841;BME280;35738;49.890;5.930;2023-04-22T01:30:06;94998.03;;;7.18;100.00
49841;BME280;35738;49.890;5.930;2023-04-22T01:32:33;94983.22;;;7.19;100.00
49841;BME280;35738;49.890;5.930;2023-04-22T01:34:59;94984.34;;;7.18;100.00
49841;BME280;35738;49.890;5.930;2023-04-22T01:37:27;94989.03;;;7.18;100.00
49841;BME280;35738;49.890;5.930;2023-04-22T01:39:54;94977.63;;;7.16;100.00
49841;BME280;35738;49.890;5.930;2023-04-22T01:42:22;94978.59;;;7.11;100.00
49841;BME280;35738;49.890;5.930;2023-04-22T01:44:49;94972.34;;;7.11;100.00
49841;BME280;35738;49.890;5.930;2023-04-22T01:47:16;94976.84;;;7.07;100.00
49841;BME280;35738;49.890;5.930;2023-04-22T01:49:42;94975.09;;;7.02;100.00
49841;BME280;35738;49.890;5.930;2023-04-22T01:52:09;94971.44;;;6.98;100.00
49841;BME280;35738;49.890;5.930;2023-04-22T01:54:35;94970.97;;;6.96;100.00
49841;BME280;35738;49.890;5.930;2023-04-22T01:57:07;94960.50;;;6.98;100.00
49841;BME280;35738;49.890;5.930;2023-04-22T01:59:36;94972.56;;;6.97;100.00
49841;BME280;35738;49.890;5.930;2023-04-22T02:02:03;94970.31;;;6.99;100.00
49841;BME280;35738;49.890;5.930;2023-04-22T02:04:30;94976.72;;;7.03;100.00
49841;BME280;35738;49.890;5.930;2023-04-22T02:06:56;94976.06;;;7.06;100.00
49841;BME280;35738;49.890;5.930;2023-04-22T02:09:23;94978.59;;;7.11;100.00
49841;BME280;35738;49.890;5.930;2023-04-22T02:11:49;94980.03;;;7.17;100.00
49841;BME280;35738;49.890;5.930;2023-04-22T02:14:16;94983.22;;;7.19;100.00
49841;BME280;35738;49.890;5.930;2023-04-22T02:16:42;94986.09;;;7.23;100.00
49841;BME280;35738;49.890;5.930;2023-04-22T02:19:09;94974.50;;;7.26;100.00
49841;BME280;35738;49.890;5.930;2023-04-22T02:21:35;94982.38;;;7.27;100.00
49841;BME280;35738;49.890;5.930;2023-04-22T02:24:02;94975.78;;;7.28;100.00
49841;BME280;35738;49.890;5.930;2023-04-22T02:26:28;94979.31;;;7.29;100.00
49841;BME280;35738;49.890;5.930;2023-04-22T02:28:56;94986.06;;;7.31;100.00
49841;BME280;35738;49.890;5.930;2023-04-22T02:31:22;94984.78;;;7.29;100.00
49841;BME280;35738;49.890;5.930;2023-04-22T02:33:49;94980.44;;;7.28;100.00
49841;BME280;35738;49.890;5.930;2023-04-22T02:36:15;94974.66;;;7.29;100.00
49841;BME280;35738;49.890;5.930;2023-04-22T02:38:41;94981.25;;;7.28;100.00
49841;BME280;35738;49.890;5.930;2023-04-22T02:41:08;94974.31;;;7.31;100.00
49841;BME280;35738;49.890;5.930;2023-04-22T02:43:34;94973.97;;;7.32;100.00
49841;BME280;35738;49.890;5.930;2023-04-22T02:46:01;94968.38;;;7.29;100.00
49841;BME280;35738;49.890;5.930;2023-04-22T02:48:27;94954.38;;;7.30;100.00
49841;BME280;35738;49.890;5.930;2023-04-22T02:50:54;94955.03;;;7.27;100.00
49841;BME280;35738;49.890;5.930;2023-04-22T02:53:21;94950.84;;;7.30;100.00
49841;BME280;35738;49.890;5.930;2023-04-22T02:55:47;94936.03;;;7.31;100.00
49841;BME280;35738;49.890;5.930;2023-04-22T02:58:13;94946.16;;;7.30;100.00
49841;BME280;35738;49.890;5.930;2023-04-22T03:00:40;94944.38;;;7.34;100.00
49841;BME280;35738;49.890;5.930;2023-04-22T03:03:06;94935.03;;;7.36;100.00
49841;BME280;35738;49.890;5.930;2023-04-22T03:05:33;94939.38;;;7.37;100.00
49841;BME280;35738;49.890;5.930;2023-04-22T03:08:00;94935.69;;;7.32;100.00
49841;BME280;35738;49.890;5.930;2023-04-22T03:10:26;94928.00;;;7.26;100.00
49841;BME280;35738;49.890;5.930;2023-04-22T03:12:53;94926.41;;;7.25;100.00
49841;BME280;35738;49.890;5.930;2023-04-22T03:15:19;94926.75;;;7.23;100.00
49841;BME280;35738;49.890;5.930;2023-04-22T03:17:47;94920.34;;;7.19;100.00
49841;BME280;35738;49.890;5.930;2023-04-22T03:20:14;94923.53;;;7.21;100.00
49841;BME280;35738;49.890;5.930;2023-04-22T03:22:40;94921.28;;;7.23;100.00
49841;BME280;35738;49.890;5.930;2023-04-22T03:25:07;94917.41;;;7.24;100.00
49841;BME280;35738;49.890;5.930;2023-04-22T03:27:33;94906.13;;;7.26;100.00
49841;BME280;35738;49.890;5.930;2023-04-22T03:30:00;94913.34;;;7.30;100.00
49841;BME280;35738;49.890;5.930;2023-04-22T03:32:27;94907.41;;;7.28;100.00
49841;BME280;35738;49.890;5.930;2023-04-22T03:34:53;94909.00;;;7.29;100.00
49841;BME280;35738;49.890;5.930;2023-04-22T03:37:20;94902.72;;;7.29;100.00
49841;BME280;35738;49.890;5.930;2023-04-22T03:39:46;94893.41;;;7.30;100.00
49841;BME280;35738;49.890;5.930;2023-04-22T03:42:13;94909.28;;;7.37;100.00
49841;BME280;35738;49.890;5.930;2023-04-22T03:44:40;94901.84;;;7.46;100.00
49841;BME280;35738;49.890;5.930;2023-04-22T03:47:07;94905.38;;;7.46;100.00
49841;BME280;35738;49.890;5.930;2023-04-22T03:49:34;94886.56;;;7.45;100.00
49841;BME280;35738;49.890;5.930;2023-04-22T03:52:00;94895.09;;;7.43;100.00
49841;BME280;35738;49.890;5.930;2023-04-22T03:54:27;94897.97;;;7.47;100.00
49841;BME280;35738;49.890;5.930;2023-04-22T03:56:53;94901.16;;;7.49;100.00
49841;BME280;35738;49.890;5.930;2023-04-22T03:59:20;94905.38;;;7.46;100.00
49841;BME280;35738;49.890;5.930;2023-04-22T04:01:46;94907.16;;;7.42;100.00
49841;BME280;35738;49.890;5.930;2023-04-22T04:04:13;94917.94;;;7.39;100.00
49841;BME280;35738;49.890;5.930;2023-04-22T04:06:40;94915.41;;;7.33;100.00
49841;BME280;35738;49.890;5.930;2023-04-22T04:09:07;94903.41;;;7.26;100.00
49841;BME280;35738;49.890;5.930;2023-04-22T04:11:33;94911.59;;;7.26;100.00
49841;BME280;35738;49.890;5.930;2023-04-22T04:14:00;94919.16;;;7.29;100.00
49841;BME280;35738;49.890;5.930;2023-04-22T04:16:26;94919.28;;;7.32;100.00
49841;BME280;35738;49.890;5.930;2023-04-22T04:18:53;94919.75;;;7.34;100.00
49841;BME280;35738;49.890;5.930;2023-04-22T04:21:19;94919.75;;;7.34;100.00
49841;BME280;35738;49.890;5.930;2023-04-22T04:23:46;94920.22;;;7.37;100.00
49841;BME280;35738;49.890;5.930;2023-04-22T04:26:12;94910.06;;;7.37;100.00
49841;BME280;35738;49.890;5.930;2023-04-22T04:28:40;94918.63;;;7.36;100.00
49841;BME280;35738;49.890;5.930;2023-04-22T04:31:07;94926.34;;;7.33;100.00
49841;BME280;35738;49.890;5.930;2023-04-22T04:33:33;94912.69;;;7.33;100.00
49841;BME280;35738;49.890;5.930;2023-04-22T04:36:02;94924.09;;;7.36;100.00
49841;BME280;35738;49.890;5.930;2023-04-22T04:38:28;94905.75;;;7.36;100.00
49841;BME280;35738;49.890;5.930;2023-04-22T04:40:55;94894.94;;;7.40;100.00
49841;BME280;35738;49.890;5.930;2023-04-22T04:43:23;94903.81;;;7.37;100.00
49841;BME280;35738;49.890;5.930;2023-04-22T04:45:52;94902.69;;;7.38;100.00
49841;BME280;35738;49.890;5.930;2023-04-22T04:48:18;94893.66;;;7.37;100.00
49841;BME280;35738;49.890;5.930;2023-04-22T04:50:45;94896.06;;;7.39;100.00
49841;BME280;35738;49.890;5.930;2023-04-22T04:53:12;94896.06;;;7.39;100.00
49841;BME280;35738;49.890;5.930;2023-04-22T04:55:38;94905.06;;;7.39;100.00
49841;BME280;35738;49.890;5.930;2023-04-22T04:58:05;94899.28;;;7.41;100.00
49841;BME280;35738;49.890;5.930;2023-04-22T05:00:32;94891.53;;;7.43;100.00
49841;BME280;35738;49.890;5.930;2023-04-22T05:02:58;94885.59;;;7.41;100.00
49841;BME280;35738;49.890;5.930;2023-04-22T05:05:25;94893.66;;;7.37;100.00
49841;BME280;35738;49.890;5.930;2023-04-22T05:07:52;94889.34;;;7.36;100.00
49841;BME280;35738;49.890;5.930;2023-04-22T05:10:19;94899.94;;;7.38;100.00
49841;BME280;35738;49.890;5.930;2023-04-22T05:12:46;94893.00;;;7.40;100.00
49841;BME280;35738;49.890;5.930;2023-04-22T05:15:13;94905.03;;;7.48;100.00
49841;BME280;35738;49.890;5.930;2023-04-22T05:17:40;94901.56;;;7.59;100.00
49841;BME280;35738;49.890;5.930;2023-04-22T05:20:08;94900.63;;;7.76;100.00
49841;BME280;35738;49.890;5.930;2023-04-22T05:22:35;94893.00;;;8.15;100.00
49841;BME280;35738;49.890;5.930;2023-04-22T05:25:03;94896.97;;;8.05;100.00
49841;BME280;35738;49.890;5.930;2023-04-22T05:27:30;94896.22;;;7.84;100.00
49841;BME280;35738;49.890;5.930;2023-04-22T05:29:56;94893.97;;;8.19;100.00
49841;BME280;35738;49.890;5.930;2023-04-22T05:32:23;94896.84;;;8.80;100.00
49841;BME280;35738;49.890;5.930;2023-04-22T05:34:49;94902.19;;;9.37;100.00
49841;BME280;35738;49.890;5.930;2023-04-22T05:37:16;94892.06;;;9.66;100.00
49841;BME280;35738;49.890;5.930;2023-04-22T05:39:42;94891.94;;;9.86;100.00
49841;BME280;35738;49.890;5.930;2023-04-22T05:42:09;94892.88;;;10.34;100.00
49841;BME280;35738;49.890;5.930;2023-04-22T05:44:36;94894.53;;;10.23;100.00
49841;BME280;35738;49.890;5.930;2023-04-22T05:47:02;94886.63;;;10.49;100.00
49841;BME280;35738;49.890;5.930;2023-04-22T05:49:29;94886.03;;;10.56;100.00
49841;BME280;35738;49.890;5.930;2023-04-22T05:51:55;94900.31;;;10.06;100.00
49841;BME280;35738;49.890;5.930;2023-04-22T05:54:22;94894.72;;;9.62;100.00
49841;BME280;35738;49.890;5.930;2023-04-22T05:56:48;94897.84;;;9.36;100.00
49841;BME280;35738;49.890;5.930;2023-04-22T05:59:15;94908.06;;;8.99;100.00
49841;BME280;35738;49.890;5.930;2023-04-22T06:01:44;94911.47;;;8.84;100.00
49841;BME280;35738;49.890;5.930;2023-04-22T06:04:11;94901.88;;;8.90;100.00
49841;BME280;35738;49.890;5.930;2023-04-22T06:06:38;94907.69;;;8.88;100.00
49841;BME280;35738;49.890;5.930;2023-04-22T06:09:04;94915.56;;;8.90;100.00
49841;BME280;35738;49.890;5.930;2023-04-22T06:11:32;94922.47;;;8.96;100.00
49841;BME280;35738;49.890;5.930;2023-04-22T06:13:59;94924.28;;;8.92;100.00
49841;BME280;35738;49.890;5.930;2023-04-22T06:16:26;94914.66;;;8.86;100.00
49841;BME280;35738;49.890;5.930;2023-04-22T06:18:53;94909.22;;;8.98;100.00
49841;BME280;35738;49.890;5.930;2023-04-22T06:21:19;94913.56;;;8.99;100.00
49841;BME280;35738;49.890;5.930;2023-04-22T06:23:46;94911.81;;;9.19;100.00
49841;BME280;35738;49.890;5.930;2023-04-22T06:26:12;94917.53;;;9.14;100.00
49841;BME280;35738;49.890;5.930;2023-04-22T06:28:39;94916.63;;;9.34;100.00
49841;BME280;35738;49.890;5.930;2023-04-22T06:31:05;94913.19;;;9.37;100.00
49841;BME280;35738;49.890;5.930;2023-04-22T06:33:32;94910.66;;;9.44;100.00
49841;BME280;35738;49.890;5.930;2023-04-22T06:35:58;94907.13;;;9.32;100.00
49841;BME280;35738;49.890;5.930;2023-04-22T06:38:25;94912.63;;;9.19;100.00
49841;BME280;35738;49.890;5.930;2023-04-22T06:40:52;94919.94;;;9.28;100.00
49841;BME280;35738;49.890;5.930;2023-04-22T06:43:18;94926.22;;;9.28;100.00
49841;BME280;35738;49.890;5.930;2023-04-22T06:45:45;94923.06;;;9.78;100.00
49841;BME280;35738;49.890;5.930;2023-04-22T06:48:11;94908.00;;;10.40;100.00
49841;BME280;35738;49.890;5.930;2023-04-22T06:50:38;94889.84;;;10.83;100.00
49841;BME280;35738;49.890;5.930;2023-04-22T06:53:06;94882.28;;;11.11;100.00
49841;BME280;35738;49.890;5.930;2023-04-22T06:55:32;94880.06;;;11.33;100.00
49841;BME280;35738;49.890;5.930;2023-04-22T06:57:59;94874.56;;;11.33;100.00
49841;BME280;35738;49.890;5.930;2023-04-22T07:00:25;94879.66;;;11.50;100.00
49841;BME280;35738;49.890;5.930;2023-04-22T07:02:53;94874.19;;;11.34;100.00
49841;BME280;35738;49.890;5.930;2023-04-22T07:05:19;94878.13;;;11.18;100.00
49841;BME280;35738;49.890;5.930;2023-04-22T07:07:46;94876.53;;;11.17;100.00
49841;BME280;35738;49.890;5.930;2023-04-22T07:10:12;94863.94;;;11.16;100.00
49841;BME280;35738;49.890;5.930;2023-04-22T07:12:40;94875.75;;;10.85;100.00
49841;BME280;35738;49.890;5.930;2023-04-22T07:15:07;94884.63;;;10.78;100.00
49841;BME280;35738;49.890;5.930;2023-04-22T07:17:33;94887.53;;;10.69;100.00
49841;BME280;35738;49.890;5.930;2023-04-22T07:20:00;94892.31;;;10.57;100.00
49841;BME280;35738;49.890;5.930;2023-04-22T07:22:27;94900.66;;;10.44;100.00
49841;BME280;35738;49.890;5.930;2023-04-22T07:24:53;94900.66;;;10.44;100.00
49841;BME280;35738;49.890;5.930;2023-04-22T07:27:20;94895.78;;;10.54;100.00
49841;BME280;35738;49.890;5.930;2023-04-22T07:29:47;94898.28;;;10.74;100.00
49841;BME280;35738;49.890;5.930;2023-04-22T07:32:13;94887.28;;;10.74;100.00
49841;BME280;35738;49.890;5.930;2023-04-22T07:34:39;94886.38;;;11.02;100.00
49841;BME280;35738;49.890;5.930;2023-04-22T07:37:06;94883.16;;;11.31;100.00
49841;BME280;35738;49.890;5.930;2023-04-22T07:39:34;94880.38;;;11.47;100.00
49841;BME280;35738;49.890;5.930;2023-04-22T07:42:01;94872.09;;;11.28;100.00
49841;BME280;35738;49.890;5.930;2023-04-22T07:44:28;94875.59;;;11.44;100.00
49841;BME280;35738;49.890;5.930;2023-04-22T07:46:55;94872.28;;;11.54;100.00
49841;BME280;35738;49.890;5.930;2023-04-22T07:49:21;94867.81;;;11.65;100.00
49841;BME280;35738;49.890;5.930;2023-04-22T07:51:48;94867.66;;;11.58;100.00
49841;BME280;35738;49.890;5.930;2023-04-22T07:54:14;94866.19;;;11.45;100.00
49841;BME280;35738;49.890;5.930;2023-04-22T07:56:41;94868.22;;;11.48;100.00
49841;BME280;35738;49.890;5.930;2023-04-22T07:59:07;94862.25;;;11.46;100.00
49841;BME280;35738;49.890;5.930;2023-04-22T08:01:34;94886.47;;;11.56;100.00
49841;BME280;35738;49.890;5.930;2023-04-22T08:04:00;94894.31;;;11.54;100.00
49841;BME280;35738;49.890;5.930;2023-04-22T08:06:27;94900.41;;;11.63;100.00
49841;BME280;35738;49.890;5.930;2023-04-22T08:08:54;94903.75;;;11.72;100.00
49841;BME280;35738;49.890;5.930;2023-04-22T08:11:20;94902.72;;;11.61;100.00
49841;BME280;35738;49.890;5.930;2023-04-22T08:13:47;94911.41;;;11.79;100.00
49841;BME280;35738;49.890;5.930;2023-04-22T08:16:13;94913.81;;;11.81;100.00
49841;BME280;35738;49.890;5.930;2023-04-22T08:18:40;94907.06;;;11.78;100.00
49841;BME280;35738;49.890;5.930;2023-04-22T08:21:06;94921.53;;;11.75;100.00
49841;BME280;35738;49.890;5.930;2023-04-22T08:23:33;94918.97;;;11.66;100.00
49841;BME280;35738;49.890;5.930;2023-04-22T08:25:59;94926.22;;;11.74;100.00
49841;BME280;35738;49.890;5.930;2023-04-22T08:28:26;94928.44;;;11.85;100.00
49841;BME280;35738;49.890;5.930;2023-04-22T08:30:52;94928.97;;;11.74;100.00
49841;BME280;35738;49.890;5.930;2023-04-22T08:33:19;94925.25;;;11.83;100.00
49841;BME280;35738;49.890;5.930;2023-04-22T08:35:46;94931.31;;;12.07;100.00
49841;BME280;35738;49.890;5.930;2023-04-22T08:38:13;94932.47;;;12.45;100.00
49841;BME280;35738;49.890;5.930;2023-04-22T08:40:40;94932.91;;;12.66;100.00
49841;BME280;35738;49.890;5.930;2023-04-22T08:43:07;94916.19;;;12.79;100.00
49841;BME280;35738;49.890;5.930;2023-04-22T08:45:37;94927.00;;;13.10;100.00
49841;BME280;35738;49.890;5.930;2023-04-22T08:48:07;94916.69;;;13.30;100.00
49841;BME280;35738;49.890;5.930;2023-04-22T08:50:36;94930.56;;;13.56;100.00
49841;BME280;35738;49.890;5.930;2023-04-22T08:53:02;94932.88;;;13.81;100.00
49841;BME280;35738;49.890;5.930;2023-04-22T08:55:29;94935.06;;;13.68;100.00
49841;BME280;35738;49.890;5.930;2023-04-22T08:57:59;94931.78;;;13.59;100.00
49841;BME280;35738;49.890;5.930;2023-04-22T09:00:26;94919.88;;;13.32;100.00
49841;BME280;35738;49.890;5.930;2023-04-22T09:02:53;94926.19;;;13.55;100.00
49841;BME280;35738;49.890;5.930;2023-04-22T09:05:21;94917.78;;;13.75;100.00
49841;BME280;35738;49.890;5.930;2023-04-22T09:07:51;94914.59;;;13.73;100.00
49841;BME280;35738;49.890;5.930;2023-04-22T09:10:18;94918.84;;;13.40;100.00
49841;BME280;35738;49.890;5.930;2023-04-22T09:12:45;94917.59;;;13.60;100.00
49841;BME280;35738;49.890;5.930;2023-04-22T09:15:12;94910.44;;;13.33;100.00
49841;BME280;35738;49.890;5.930;2023-04-22T09:17:39;94911.84;;;13.00;100.00
49841;BME280;35738;49.890;5.930;2023-04-22T09:20:09;94908.78;;;12.83;100.00
49841;BME280;35738;49.890;5.930;2023-04-22T09:22:41;94909.47;;;12.57;100.00
49841;BME280;35738;49.890;5.930;2023-04-22T09:25:21;94922.41;;;12.33;100.00
49841;BME280;35738;49.890;5.930;2023-04-22T09:27:52;94920.81;;;12.32;100.00
49841;BME280;35738;49.890;5.930;2023-04-22T09:30:46;94923.28;;;12.37;100.00
49841;BME280;35738;49.890;5.930;2023-04-22T09:33:12;94928.69;;;12.53;100.00
49841;BME280;35738;49.890;5.930;2023-04-22T09:35:40;94925.00;;;12.65;100.00
49841;BME280;35738;49.890;5.930;2023-04-22T09:38:09;94925.81;;;12.88;100.00
49841;BME280;35738;49.890;5.930;2023-04-22T09:40:40;94912.31;;;13.06;100.00
49841;BME280;35738;49.890;5.930;2023-04-22T09:43:07;94917.97;;;13.36;100.00
49841;BME280;35738;49.890;5.930;2023-04-22T09:45:36;94907.91;;;13.74;100.00
49841;BME280;35738;49.890;5.930;2023-04-22T09:50:33;94918.47;;;13.94;100.00
49841;BME280;35738;49.890;5.930;2023-04-22T09:53:06;94928.53;;;14.10;100.00
49841;BME280;35738;49.890;5.930;2023-04-22T09:55:38;94926.69;;;14.47;100.00
49841;BME280;35738;49.890;5.930;2023-04-22T09:58:08;94924.19;;;14.39;100.00
49841;BME280;35738;49.890;5.930;2023-04-22T10:00:47;94933.78;;;14.45;100.00
49841;BME280;35738;49.890;5.930;2023-04-22T10:03:14;94938.72;;;14.62;100.00
49841;BME280;35738;49.890;5.930;2023-04-22T10:05:41;94943.97;;;15.08;100.00
49841;BME280;35738;49.890;5.930;2023-04-22T10:08:11;94936.59;;;15.22;100.00
49841;BME280;35738;49.890;5.930;2023-04-22T10:10:39;94944.63;;;15.35;100.00
49841;BME280;35738;49.890;5.930;2023-04-22T10:13:07;94941.53;;;15.43;100.00
49841;BME280;35738;49.890;5.930;2023-04-22T10:15:42;94947.22;;;15.17;100.00
49841;BME280;35738;49.890;5.930;2023-04-22T10:18:16;94946.34;;;14.72;100.00
49841;BME280;35738;49.890;5.930;2023-04-22T10:20:44;94940.28;;;14.29;100.00
49841;BME280;35738;49.890;5.930;2023-04-22T10:23:14;94949.19;;;14.16;100.00
49841;BME280;35738;49.890;5.930;2023-04-22T10:25:49;94946.00;;;13.87;100.00
49841;BME280;35738;49.890;5.930;2023-04-22T10:28:22;94956.81;;;13.70;100.00
49841;BME280;35738;49.890;5.930;2023-04-22T10:30:49;94953.06;;;13.58;100.00
49841;BME280;35738;49.890;5.930;2023-04-22T10:36:15;94965.00;;;13.40;100.00
49841;BME280;35738;49.890;5.930;2023-04-22T10:41:24;94958.81;;;13.46;100.00
49841;BME280;35738;49.890;5.930;2023-04-22T10:43:56;94958.66;;;13.62;100.00
49841;BME280;35738;49.890;5.930;2023-04-22T10:49:12;94961.69;;;13.53;100.00
49841;BME280;35738;49.890;5.930;2023-04-22T10:51:46;94960.53;;;13.81;100.00
49841;BME280;35738;49.890;5.930;2023-04-22T10:57:00;94962.13;;;13.82;100.00
49841;BME280;35738;49.890;5.930;2023-04-22T10:59:28;94976.31;;;13.80;100.00
49841;BME280;35738;49.890;5.930;2023-04-22T11:02:05;94961.28;;;14.08;100.00
49841;BME280;35738;49.890;5.930;2023-04-22T11:04:32;94967.59;;;14.35;100.00
49841;BME280;35738;49.890;5.930;2023-04-22T11:09:49;94976.38;;;14.70;100.00
49841;BME280;35738;49.890;5.930;2023-04-22T11:17:30;94985.44;;;13.84;100.00
49841;BME280;35738;49.890;5.930;2023-04-22T11:19:57;94986.16;;;13.55;100.00
49841;BME280;35738;49.890;5.930;2023-04-22T11:22:26;94991.16;;;13.03;100.00
49841;BME280;35738;49.890;5.930;2023-04-22T11:24:57;95005.22;;;12.76;100.00
49841;BME280;35738;49.890;5.930;2023-04-22T11:27:24;95005.19;;;12.37;100.00
49841;BME280;35738;49.890;5.930;2023-04-22T11:32:40;95020.44;;;11.80;100.00
49841;BME280;35738;49.890;5.930;2023-04-22T11:35:33;95028.16;;;11.74;100.00
49841;BME280;35738;49.890;5.930;2023-04-22T11:38:04;95035.53;;;11.70;100.00
49841;BME280;35738;49.890;5.930;2023-04-22T11:40:34;95029.31;;;11.58;100.00
49841;BME280;35738;49.890;5.930;2023-04-22T11:43:05;95035.09;;;11.53;100.00
49841;BME280;35738;49.890;5.930;2023-04-22T11:45:34;95031.47;;;11.49;100.00
49841;BME280;35738;49.890;5.930;2023-04-22T11:48:03;95035.38;;;11.48;100.00
49841;BME280;35738;49.890;5.930;2023-04-22T11:50:35;95035.28;;;11.44;100.00
49841;BME280;35738;49.890;5.930;2023-04-22T11:53:04;95037.59;;;11.42;100.00
49841;BME280;35738;49.890;5.930;2023-04-22T11:55:32;95046.13;;;11.37;100.00
49841;BME280;35738;49.890;5.930;2023-04-22T12:00:36;95047.28;;;11.36;100.00
49841;BME280;35738;49.890;5.930;2023-04-22T12:03:05;95059.34;;;11.31;100.00
49841;BME280;35738;49.890;5.930;2023-04-22T12:08:11;95055.44;;;11.32;100.00
49841;BME280;35738;49.890;5.930;2023-04-22T12:13:19;95052.25;;;11.46;100.00
49841;BME280;35738;49.890;5.930;2023-04-22T12:15:47;95064.41;;;11.45;100.00
49841;BME280;35738;49.890;5.930;2023-04-22T12:18:13;95075.69;;;11.40;100.00
49841;BME280;35738;49.890;5.930;2023-04-22T12:20:41;95071.56;;;11.18;100.00
49841;BME280;35738;49.890;5.930;2023-04-22T12:23:12;95075.22;;;11.22;100.00
49841;BME280;35738;49.890;5.930;2023-04-22T12:25:40;95068.25;;;11.12;100.00
49841;BME280;35738;49.890;5.930;2023-04-22T12:28:07;95070.13;;;11.08;100.00
49841;BME280;35738;49.890;5.930;2023-04-22T12:30:33;95075.34;;;11.13;100.00
49841;BME280;35738;49.890;5.930;2023-04-22T12:33:00;95076.78;;;11.07;100.00
49841;BME280;35738;49.890;5.930;2023-04-22T12:35:27;95072.88;;;11.08;100.00
49841;BME280;35738;49.890;5.930;2023-04-22T12:37:53;95075.25;;;11.10;100.00
49841;BME280;35738;49.890;5.930;2023-04-22T12:40:20;95070.13;;;11.08;100.00
49841;BME280;35738;49.890;5.930;2023-04-22T12:42:46;95080.66;;;11.06;100.00
49841;BME280;35738;49.890;5.930;2023-04-22T12:45:13;95071.53;;;11.02;100.00
49841;BME280;35738;49.890;5.930;2023-04-22T12:47:39;95077.38;;;11.01;100.00
49841;BME280;35738;49.890;5.930;2023-04-22T12:50:07;95074.63;;;11.01;100.00
49841;BME280;35738;49.890;5.930;2023-04-22T12:52:34;95069.84;;;11.13;100.00
49841;BME280;35738;49.890;5.930;2023-04-22T12:55:01;95073.91;;;11.32;100.00
49841;BME280;35738;49.890;5.930;2023-04-22T12:57:27;95076.75;;;11.51;100.00
49841;BME280;35738;49.890;5.930;2023-04-22T12:59:54;95066.53;;;11.67;100.00
49841;BME280;35738;49.890;5.930;2023-04-22T13:02:20;95069.75;;;11.69;100.00
49841;BME280;35738;49.890;5.930;2023-04-22T13:04:47;95063.34;;;11.65;100.00
49841;BME280;35738;49.890;5.930;2023-04-22T13:07:14;95065.56;;;11.60;100.00
49841;BME280;35738;49.890;5.930;2023-04-22T13:09:42;95076.84;;;11.55;100.00
49841;BME280;35738;49.890;5.930;2023-04-22T13:12:09;95074.97;;;11.43;100.00
49841;BME280;35738;49.890;5.930;2023-04-22T13:14:36;95078.44;;;11.40;100.00
49841;BME280;35738;49.890;5.930;2023-04-22T13:17:03;95072.75;;;11.33;100.00
49841;BME280;35738;49.890;5.930;2023-04-22T13:19:29;95071.84;;;11.29;100.00
49841;BME280;35738;49.890;5.930;2023-04-22T13:21:57;95064.13;;;11.19;100.00
49841;BME280;35738;49.890;5.930;2023-04-22T13:24:23;95067.72;;;11.07;100.00
49841;BME280;35738;49.890;5.930;2023-04-22T13:26:50;95062.91;;;11.04;100.00
49841;BME280;35738;49.890;5.930;2023-04-22T13:29:16;95067.16;;;11.01;100.00